createdAt,value
2019-03-31T00:00:14.244Z,10.31
2019-03-31T00:01:14.228Z,10.14
2019-03-31T00:02:14.256Z,9.92
2019-03-31T00:03:14.206Z,9.77
2019-03-31T00:04:14.198Z,9.53
2019-03-31T00:05:14.187Z,9.35
2019-03-31T00:06:14.176Z,9.23
2019-03-31T00:07:14.188Z,9.04
2019-03-31T00:08:14.172Z,9.08
2019-03-31T00:09:14.160Z,9.24
2019-03-31T00:10:14.135Z,9.22
2019-03-31T00:11:14.123Z,9.15
2019-03-31T00:12:14.123Z,9.06
2019-03-31T00:13:14.102Z,9.03
2019-03-31T00:14:14.087Z,8.89
2019-03-31T00:15:14.096Z,8.85
2019-03-31T00:16:14.107Z,8.91
2019-03-31T00:17:14.071Z,8.61
2019-03-31T00:18:14.047Z,8.61
2019-03-31T00:19:14.035Z,8.46
2019-03-31T00:20:14.028Z,8.32
2019-03-31T00:21:14.014Z,8.13
2019-03-31T00:22:14.073Z,7.96
2019-03-31T00:23:13.993Z,7.81
2019-03-31T00:24:13.982Z,7.55
2019-03-31T00:25:13.970Z,7.41
2019-03-31T00:26:13.959Z,7.39
2019-03-31T00:27:13.963Z,7.30
2019-03-31T00:28:13.960Z,7.24
2019-03-31T00:29:13.932Z,7.24
2019-03-31T00:30:13.915Z,7.05
2019-03-31T00:31:22.063Z,6.99
2019-03-31T00:32:14.904Z,6.91
2019-03-31T00:33:13.881Z,6.86
2019-03-31T00:34:13.882Z,6.72
2019-03-31T00:35:13.873Z,6.53
2019-03-31T00:36:13.853Z,6.48
2019-03-31T00:37:13.873Z,6.36
2019-03-31T00:38:13.843Z,6.35
2019-03-31T00:39:13.818Z,6.35
2019-03-31T00:40:13.805Z,6.32
2019-03-31T00:41:13.795Z,6.32
2019-03-31T00:42:13.799Z,6.27
2019-03-31T00:43:13.791Z,6.20
2019-03-31T00:44:13.800Z,5.99
2019-03-31T00:45:13.753Z,5.96
2019-03-31T00:46:13.742Z,5.88
2019-03-31T00:47:13.744Z,5.78
2019-03-31T00:48:13.722Z,5.60
2019-03-31T00:49:13.711Z,5.49
2019-03-31T00:50:13.728Z,5.26
2019-03-31T00:51:13.687Z,5.29
2019-03-31T00:52:13.689Z,5.23
2019-03-31T00:53:13.667Z,5.38
2019-03-31T00:54:13.655Z,5.38
2019-03-31T00:55:13.645Z,5.45
2019-03-31T00:56:13.653Z,5.65
2019-03-31T00:57:13.633Z,6.38
2019-03-31T00:58:13.612Z,6.82
2019-03-31T00:59:13.630Z,7.21
2019-03-31T01:00:13.589Z,7.41
2019-03-31T01:01:13.580Z,7.85
2019-03-31T01:02:13.612Z,8.13
2019-03-31T01:03:13.557Z,8.32
2019-03-31T01:04:13.546Z,8.32
2019-03-31T01:05:13.538Z,8.40
2019-03-31T01:06:13.532Z,8.27
2019-03-31T01:07:13.554Z,8.34
2019-03-31T01:08:13.504Z,8.52
2019-03-31T01:09:13.493Z,8.60
2019-03-31T01:10:13.482Z,8.63
2019-03-31T01:11:13.480Z,8.63
2019-03-31T01:12:13.468Z,8.68
2019-03-31T01:13:13.462Z,8.73
2019-03-31T01:14:13.439Z,8.73
2019-03-31T01:15:13.429Z,8.75
2019-03-31T01:16:13.417Z,8.88
2019-03-31T01:17:13.439Z,8.83
2019-03-31T01:18:13.413Z,8.96
2019-03-31T01:19:13.401Z,9.01
2019-03-31T01:20:13.377Z,8.89
2019-03-31T01:21:13.365Z,8.94
2019-03-31T01:22:13.359Z,8.83
2019-03-31T01:23:13.348Z,8.73
2019-03-31T01:24:13.326Z,8.71
2019-03-31T01:25:13.328Z,8.61
2019-03-31T01:26:13.306Z,8.67
2019-03-31T01:27:13.296Z,8.58
2019-03-31T01:28:13.294Z,8.57
2019-03-31T01:29:13.273Z,8.50
2019-03-31T01:30:13.263Z,8.32
2019-03-31T01:31:13.257Z,8.36
2019-03-31T01:32:13.244Z,8.34
2019-03-31T01:33:13.240Z,8.34
2019-03-31T01:34:13.220Z,8.28
2019-03-31T01:35:13.210Z,8.06
2019-03-31T01:36:13.196Z,8.13
2019-03-31T01:37:13.206Z,8.04
2019-03-31T01:38:13.213Z,8.00
2019-03-31T01:39:13.165Z,7.92
2019-03-31T01:40:13.155Z,8.04
2019-03-31T01:41:13.144Z,7.94
2019-03-31T01:42:13.135Z,7.81
2019-03-31T01:43:13.134Z,7.66
2019-03-31T01:44:13.146Z,7.60
2019-03-31T01:45:13.116Z,7.50
2019-03-31T01:46:13.120Z,7.39
2019-03-31T01:47:13.078Z,7.48
2019-03-31T01:48:13.079Z,7.33
2019-03-31T01:49:13.055Z,7.50
2019-03-31T01:50:13.046Z,7.69
2019-03-31T01:51:13.036Z,7.74
2019-03-31T01:52:13.038Z,7.63
2019-03-31T01:53:13.027Z,7.86
2019-03-31T01:54:13.001Z,7.85
2019-03-31T01:55:12.993Z,7.88
2019-03-31T01:56:12.980Z,7.82
2019-03-31T01:57:12.969Z,7.85
2019-03-31T01:58:12.996Z,7.73
2019-03-31T01:59:12.950Z,7.66
2019-03-31T02:00:12.939Z,7.74
2019-03-31T02:01:12.926Z,7.79
2019-03-31T02:02:12.915Z,7.84
2019-03-31T02:03:12.917Z,7.86
2019-03-31T02:04:12.919Z,7.79
2019-03-31T02:05:12.886Z,7.66
2019-03-31T02:06:12.875Z,7.70
2019-03-31T02:07:12.860Z,7.58
2019-03-31T02:08:12.859Z,7.50
2019-03-31T02:09:12.838Z,7.54
2019-03-31T02:10:12.852Z,7.63
2019-03-31T02:11:12.819Z,7.60
2019-03-31T02:12:12.807Z,7.54
2019-03-31T02:13:12.827Z,7.58
2019-03-31T02:14:12.784Z,7.69
2019-03-31T02:15:12.773Z,7.77
2019-03-31T02:16:12.787Z,7.86
2019-03-31T02:17:12.752Z,7.96
2019-03-31T02:18:12.739Z,7.92
2019-03-31T02:19:12.742Z,7.92
2019-03-31T02:20:12.721Z,7.84
2019-03-31T02:21:12.707Z,7.81
2019-03-31T02:22:12.728Z,7.73
2019-03-31T02:23:12.691Z,7.74
2019-03-31T02:24:12.687Z,7.71
2019-03-31T02:25:12.664Z,7.73
2019-03-31T02:26:12.655Z,7.67
2019-03-31T02:27:12.641Z,7.69
2019-03-31T02:28:12.651Z,7.41
2019-03-31T02:29:12.631Z,7.36
2019-03-31T02:30:12.612Z,7.08
2019-03-31T02:31:12.604Z,6.99
2019-03-31T02:32:23.349Z,6.64
2019-03-31T02:33:13.576Z,6.53
2019-03-31T02:34:12.602Z,6.36
2019-03-31T02:35:12.561Z,6.17
2019-03-31T02:36:12.550Z,6.10
2019-03-31T02:37:12.540Z,5.95
2019-03-31T02:38:12.522Z,5.78
2019-03-31T02:39:12.524Z,5.63
2019-03-31T02:40:12.510Z,5.60
2019-03-31T02:41:12.520Z,5.44
2019-03-31T02:42:12.493Z,5.45
2019-03-31T02:43:12.470Z,5.30
2019-03-31T02:44:12.476Z,5.23
2019-03-31T02:45:12.525Z,5.26
2019-03-31T02:46:12.443Z,5.15
2019-03-31T02:47:12.443Z,5.01
2019-03-31T02:48:12.418Z,4.79
2019-03-31T02:49:12.423Z,4.67
2019-03-31T02:50:12.396Z,4.49
2019-03-31T02:51:12.384Z,4.34
2019-03-31T02:52:12.385Z,4.28
2019-03-31T02:53:12.385Z,4.17
2019-03-31T02:54:12.390Z,3.98
2019-03-31T02:55:12.342Z,4.10
2019-03-31T02:56:12.337Z,4.04
2019-03-31T02:57:12.321Z,4.10
2019-03-31T02:58:12.313Z,4.08
2019-03-31T02:59:12.317Z,4.25
2019-03-31T03:00:12.307Z,4.62
2019-03-31T03:01:12.279Z,5.11
2019-03-31T03:02:12.282Z,5.42
2019-03-31T03:03:12.255Z,5.55
2019-03-31T03:04:12.258Z,5.56
2019-03-31T03:05:19.527Z,5.45
2019-03-31T03:06:13.237Z,5.32
2019-03-31T03:07:12.214Z,5.17
2019-03-31T03:08:12.201Z,4.96
2019-03-31T03:09:12.201Z,4.79
2019-03-31T03:10:12.185Z,4.62
2019-03-31T03:11:12.179Z,4.59
2019-03-31T03:12:12.167Z,4.53
2019-03-31T03:13:12.154Z,4.35
2019-03-31T03:14:12.146Z,4.26
2019-03-31T03:15:12.128Z,4.04
2019-03-31T03:16:12.116Z,4.04
2019-03-31T03:17:12.111Z,3.95
2019-03-31T03:18:12.109Z,3.86
2019-03-31T03:19:12.095Z,3.78
2019-03-31T03:20:12.110Z,3.77
2019-03-31T03:21:12.063Z,3.63
2019-03-31T03:22:12.051Z,3.62
2019-03-31T03:23:12.039Z,3.39
2019-03-31T03:24:12.083Z,3.54
2019-03-31T03:25:12.022Z,3.41
2019-03-31T03:26:12.012Z,3.57
2019-03-31T03:27:11.997Z,3.57
2019-03-31T03:28:11.987Z,3.62
2019-03-31T03:29:11.987Z,3.53
2019-03-31T03:30:11.999Z,3.59
2019-03-31T03:31:15.852Z,3.57
2019-03-31T03:32:12.010Z,3.56
2019-03-31T03:33:16.373Z,3.56
2019-03-31T03:34:12.932Z,3.52
2019-03-31T03:35:11.910Z,3.50
2019-03-31T03:36:11.926Z,3.41
2019-03-31T03:37:11.888Z,3.37
2019-03-31T03:38:11.879Z,3.26
2019-03-31T03:39:11.878Z,3.25
2019-03-31T03:40:11.866Z,3.20
2019-03-31T03:41:11.847Z,3.16
2019-03-31T03:42:11.860Z,3.13
2019-03-31T03:43:11.828Z,3.07
2019-03-31T03:44:11.838Z,3.07
2019-03-31T03:45:11.804Z,3.05
2019-03-31T03:46:11.792Z,2.97
2019-03-31T03:47:11.784Z,2.92
2019-03-31T03:48:11.792Z,2.95
2019-03-31T03:49:12.117Z,2.90
2019-03-31T03:50:11.769Z,2.90
2019-03-31T03:51:11.743Z,2.83
2019-03-31T03:52:11.736Z,2.86
2019-03-31T03:53:11.746Z,2.79
2019-03-31T03:54:11.728Z,2.79
2019-03-31T03:55:11.707Z,2.79
2019-03-31T03:56:11.686Z,2.79
2019-03-31T03:57:11.679Z,2.74
2019-03-31T03:58:11.666Z,2.69
2019-03-31T03:59:11.650Z,2.53
2019-03-31T04:00:11.691Z,2.50
2019-03-31T04:01:11.636Z,2.38
2019-03-31T04:02:11.619Z,2.44
2019-03-31T04:03:28.606Z,2.33
2019-03-31T04:04:12.597Z,2.40
2019-03-31T04:05:11.599Z,2.32
2019-03-31T04:06:11.587Z,2.32
2019-03-31T04:07:11.568Z,2.38
2019-03-31T04:08:11.556Z,2.25
2019-03-31T04:09:11.544Z,2.22
2019-03-31T04:10:11.545Z,2.19
2019-03-31T04:11:11.529Z,2.20
2019-03-31T04:12:11.537Z,2.09
2019-03-31T04:13:11.502Z,2.08
2019-03-31T04:14:11.491Z,2.05
2019-03-31T04:15:11.493Z,2.05
2019-03-31T04:16:11.471Z,1.93
2019-03-31T04:17:11.457Z,1.95
2019-03-31T04:18:11.472Z,1.86
2019-03-31T04:19:11.439Z,1.77
2019-03-31T04:20:11.439Z,1.89
2019-03-31T04:21:11.421Z,1.88
2019-03-31T04:22:11.411Z,1.95
2019-03-31T04:23:11.511Z,1.86
2019-03-31T04:24:11.404Z,1.81
2019-03-31T04:25:11.382Z,1.89
2019-03-31T04:26:11.362Z,1.92
2019-03-31T04:27:11.356Z,1.93
2019-03-31T04:28:11.339Z,1.89
2019-03-31T04:29:11.331Z,1.93
2019-03-31T04:30:11.350Z,2.02
2019-03-31T04:31:11.309Z,2.19
2019-03-31T04:32:11.299Z,2.83
2019-03-31T04:33:11.292Z,3.35
2019-03-31T04:34:11.281Z,3.98
2019-03-31T04:35:11.278Z,4.44
2019-03-31T04:36:11.290Z,4.57
2019-03-31T04:37:11.249Z,4.93
2019-03-31T04:38:11.237Z,5.08
2019-03-31T04:39:11.223Z,5.30
2019-03-31T04:40:11.227Z,5.24
2019-03-31T04:41:11.209Z,5.22
2019-03-31T04:42:11.205Z,4.96
2019-03-31T04:43:11.183Z,4.84
2019-03-31T04:44:11.169Z,4.80
2019-03-31T04:45:11.169Z,4.77
2019-03-31T04:46:11.153Z,4.72
2019-03-31T04:47:11.137Z,4.74
2019-03-31T04:48:11.152Z,4.74
2019-03-31T04:49:11.124Z,4.71
2019-03-31T04:50:11.120Z,4.86
2019-03-31T04:51:11.094Z,4.75
2019-03-31T04:52:11.083Z,4.59
2019-03-31T04:53:11.074Z,4.42
2019-03-31T04:54:11.095Z,4.29
2019-03-31T04:55:11.053Z,4.14
2019-03-31T04:56:11.057Z,4.14
2019-03-31T04:57:11.046Z,4.17
2019-03-31T04:58:11.020Z,4.25
2019-03-31T04:59:11.007Z,4.26
2019-03-31T05:00:11.015Z,4.17
2019-03-31T05:01:11.003Z,4.20
2019-03-31T05:02:10.976Z,4.34
2019-03-31T05:03:10.965Z,4.10
2019-03-31T05:04:10.955Z,4.17
2019-03-31T05:05:10.943Z,4.13
2019-03-31T05:06:10.969Z,4.11
2019-03-31T05:07:10.990Z,3.90
2019-03-31T05:08:10.911Z,4.02
2019-03-31T05:09:10.995Z,4.24
2019-03-31T05:10:10.890Z,4.49
2019-03-31T05:11:10.892Z,4.69
2019-03-31T05:12:10.954Z,4.99
2019-03-31T05:13:10.858Z,5.14
2019-03-31T05:14:10.846Z,5.35
2019-03-31T05:15:10.836Z,5.52
2019-03-31T05:16:10.836Z,5.69
2019-03-31T05:17:10.820Z,5.77
2019-03-31T05:18:10.811Z,5.75
2019-03-31T05:19:10.794Z,5.80
2019-03-31T05:20:10.783Z,5.84
2019-03-31T05:21:10.787Z,5.88
2019-03-31T05:22:10.762Z,5.87
2019-03-31T05:23:10.753Z,6.01
2019-03-31T05:24:10.757Z,6.03
2019-03-31T05:25:10.739Z,6.03
2019-03-31T05:26:10.733Z,6.01
2019-03-31T05:27:10.720Z,6.05
2019-03-31T05:28:10.701Z,5.87
2019-03-31T05:29:10.686Z,5.78
2019-03-31T05:30:10.707Z,5.70
2019-03-31T05:31:10.676Z,5.48
2019-03-31T05:32:10.654Z,5.49
2019-03-31T05:33:10.649Z,5.37
2019-03-31T05:34:19.012Z,5.32
2019-03-31T05:35:11.635Z,5.09
2019-03-31T05:36:10.627Z,4.86
2019-03-31T05:37:10.599Z,4.84
2019-03-31T05:38:10.594Z,4.64
2019-03-31T05:39:10.579Z,4.62
2019-03-31T05:40:10.569Z,4.71
2019-03-31T05:41:10.582Z,4.93
2019-03-31T05:42:10.568Z,5.17
2019-03-31T05:43:10.535Z,5.45
2019-03-31T05:44:10.528Z,5.75
2019-03-31T05:45:10.515Z,5.88
2019-03-31T05:46:10.514Z,6.21
2019-03-31T05:47:10.495Z,6.36
2019-03-31T05:48:10.498Z,6.53
2019-03-31T05:49:10.476Z,6.60
2019-03-31T05:50:10.467Z,6.72
2019-03-31T05:51:10.448Z,6.78
2019-03-31T05:52:10.452Z,6.82
2019-03-31T05:53:10.443Z,6.94
2019-03-31T05:54:10.441Z,6.94
2019-03-31T05:55:10.406Z,6.96
2019-03-31T05:56:10.397Z,7.16
2019-03-31T05:57:10.395Z,6.97
2019-03-31T05:58:10.375Z,6.91
2019-03-31T05:59:10.364Z,6.99
2019-03-31T06:00:10.415Z,7.12
2019-03-31T06:01:10.352Z,7.23
2019-03-31T06:02:10.341Z,7.37
2019-03-31T06:03:10.322Z,7.51
2019-03-31T06:04:10.342Z,7.79
2019-03-31T06:05:10.300Z,8.07
2019-03-31T06:06:10.310Z,8.36
2019-03-31T06:07:10.290Z,8.73
2019-03-31T06:08:10.274Z,9.12
2019-03-31T06:09:10.262Z,9.37
2019-03-31T06:10:10.247Z,9.58
2019-03-31T06:11:10.235Z,9.70
2019-03-31T06:12:10.259Z,9.68
2019-03-31T06:13:10.239Z,10.02
2019-03-31T06:14:10.203Z,10.42
2019-03-31T06:15:10.195Z,10.58
2019-03-31T06:16:10.182Z,10.98
2019-03-31T06:17:10.186Z,10.95
2019-03-31T06:18:10.166Z,10.78
2019-03-31T06:19:10.170Z,10.75
2019-03-31T06:20:10.140Z,10.68
2019-03-31T06:21:10.127Z,10.58
2019-03-31T06:22:10.129Z,10.57
2019-03-31T06:23:10.105Z,11.11
2019-03-31T06:24:10.096Z,11.59
2019-03-31T06:25:10.098Z,12.04
2019-03-31T06:26:10.101Z,12.30
2019-03-31T06:27:10.075Z,12.38
2019-03-31T06:28:10.054Z,12.23
2019-03-31T06:29:10.042Z,12.23
2019-03-31T06:30:10.032Z,12.55
2019-03-31T06:31:10.032Z,12.34
2019-03-31T06:32:10.039Z,12.13
2019-03-31T06:33:09.998Z,12.33
2019-03-31T06:34:09.987Z,12.41
2019-03-31T06:35:09.975Z,12.55
2019-03-31T06:36:09.967Z,12.61
2019-03-31T06:37:09.969Z,12.54
2019-03-31T06:38:09.977Z,12.70
2019-03-31T06:39:09.937Z,12.70
2019-03-31T06:40:09.923Z,12.48
2019-03-31T06:41:09.912Z,12.37
2019-03-31T06:42:09.915Z,12.37
2019-03-31T06:43:09.892Z,12.56
2019-03-31T06:44:09.891Z,12.51
2019-03-31T06:45:09.871Z,12.59
2019-03-31T06:46:09.858Z,13.04
2019-03-31T06:47:09.860Z,12.92
2019-03-31T06:48:09.836Z,12.46
2019-03-31T06:49:09.826Z,12.40
2019-03-31T06:50:09.825Z,12.59
2019-03-31T06:51:09.821Z,13.38
2019-03-31T06:52:09.804Z,13.57
2019-03-31T06:53:09.781Z,13.84
2019-03-31T06:54:09.771Z,13.98
2019-03-31T06:55:09.762Z,14.08
2019-03-31T06:56:09.753Z,14.29
2019-03-31T06:57:09.779Z,13.62
2019-03-31T06:58:09.749Z,13.01
2019-03-31T06:59:09.736Z,13.17
2019-03-31T07:00:09.716Z,13.51
2019-03-31T07:01:09.701Z,13.16
2019-03-31T07:02:09.695Z,13.36
2019-03-31T07:03:09.673Z,13.28
2019-03-31T07:04:09.697Z,13.75
2019-03-31T07:05:09.651Z,14.39
2019-03-31T07:06:09.648Z,15.00
2019-03-31T07:07:09.639Z,15.03
2019-03-31T07:08:09.617Z,15.53
2019-03-31T07:09:09.616Z,15.88
2019-03-31T07:10:09.694Z,15.67
2019-03-31T07:11:09.596Z,15.44
2019-03-31T07:12:09.614Z,15.35
2019-03-31T07:13:09.563Z,15.76
2019-03-31T07:14:09.552Z,15.64
2019-03-31T07:15:09.577Z,15.66
2019-03-31T07:16:09.530Z,15.71
2019-03-31T07:17:09.532Z,15.01
2019-03-31T07:18:09.509Z,15.28
2019-03-31T07:19:09.500Z,15.40
2019-03-31T07:20:09.509Z,15.99
2019-03-31T07:21:09.477Z,16.50
2019-03-31T07:22:09.476Z,16.84
2019-03-31T07:23:09.454Z,16.40
2019-03-31T07:24:09.443Z,16.17
2019-03-31T07:25:09.437Z,15.74
2019-03-31T07:26:09.449Z,15.60
2019-03-31T07:27:09.422Z,15.84
2019-03-31T07:28:09.401Z,15.98
2019-03-31T07:29:09.413Z,16.50
2019-03-31T07:30:09.379Z,16.60
2019-03-31T07:31:09.369Z,16.85
2019-03-31T07:32:09.385Z,16.82
2019-03-31T07:33:09.346Z,17.12
2019-03-31T07:34:09.334Z,17.32
2019-03-31T07:35:18.321Z,17.60
2019-03-31T07:36:10.323Z,18.13
2019-03-31T07:37:09.308Z,18.02
2019-03-31T07:38:09.326Z,16.87
2019-03-31T07:39:09.323Z,16.26
2019-03-31T07:40:09.348Z,15.91
2019-03-31T07:41:13.102Z,15.80
2019-03-31T07:42:09.421Z,16.07
2019-03-31T07:43:09.375Z,15.99
2019-03-31T07:44:09.251Z,16.34
2019-03-31T07:45:09.215Z,16.62
2019-03-31T07:46:09.206Z,16.77
2019-03-31T07:47:09.200Z,16.91
2019-03-31T07:48:09.196Z,16.81
2019-03-31T07:49:09.170Z,16.77
2019-03-31T07:50:09.175Z,16.57
2019-03-31T07:51:09.148Z,17.06
2019-03-31T07:52:09.151Z,17.71
2019-03-31T07:53:09.139Z,17.80
2019-03-31T07:54:09.115Z,17.99
2019-03-31T07:55:09.114Z,18.51
2019-03-31T07:56:09.097Z,18.35
2019-03-31T07:57:09.113Z,18.25
2019-03-31T07:58:09.085Z,18.65
2019-03-31T07:59:09.136Z,18.69
2019-03-31T08:00:09.050Z,18.41
2019-03-31T08:01:09.040Z,17.62
2019-03-31T08:02:09.027Z,18.31
2019-03-31T08:03:09.050Z,18.83
2019-03-31T08:04:09.031Z,19.28
2019-03-31T08:05:08.998Z,18.83
2019-03-31T08:06:08.990Z,19.10
2019-03-31T08:07:08.973Z,18.51
2019-03-31T08:08:08.974Z,19.17
2019-03-31T08:09:08.962Z,19.43
2019-03-31T08:10:09.003Z,19.50
2019-03-31T08:11:08.937Z,19.76
2019-03-31T08:12:08.925Z,18.74
2019-03-31T08:13:08.925Z,17.98
2019-03-31T08:14:08.904Z,17.89
2019-03-31T08:15:08.887Z,17.63
2019-03-31T08:16:08.910Z,17.45
2019-03-31T08:17:08.883Z,16.70
2019-03-31T08:18:08.886Z,16.25
2019-03-31T08:19:08.858Z,16.29
2019-03-31T08:20:08.831Z,16.34
2019-03-31T08:21:08.821Z,16.10
2019-03-31T08:22:08.843Z,15.52
2019-03-31T08:23:08.819Z,15.88
2019-03-31T08:24:08.788Z,16.67
2019-03-31T08:25:08.776Z,16.75
2019-03-31T08:26:08.769Z,17.38
2019-03-31T08:27:08.754Z,17.84
2019-03-31T08:28:08.767Z,18.53
2019-03-31T08:29:08.732Z,18.72
2019-03-31T08:30:08.723Z,19.57
2019-03-31T08:31:08.712Z,20.26
2019-03-31T08:32:08.708Z,20.90
2019-03-31T08:33:08.700Z,21.21
2019-03-31T08:34:08.695Z,21.34
2019-03-31T08:35:08.666Z,20.41
2019-03-31T08:36:08.658Z,20.04
2019-03-31T08:37:08.645Z,19.98
2019-03-31T08:38:08.645Z,20.66
2019-03-31T08:39:08.730Z,21.38
2019-03-31T08:40:08.714Z,21.83
2019-03-31T08:41:08.620Z,22.09
2019-03-31T08:42:08.597Z,21.38
2019-03-31T08:43:08.612Z,20.96
2019-03-31T08:44:08.574Z,21.08
2019-03-31T08:45:08.557Z,20.98
2019-03-31T08:46:08.588Z,21.16
2019-03-31T08:47:08.534Z,20.81
2019-03-31T08:48:08.533Z,20.44
2019-03-31T08:49:08.513Z,19.94
2019-03-31T08:50:08.503Z,19.94
2019-03-31T08:51:08.508Z,20.41
2019-03-31T08:52:08.508Z,19.95
2019-03-31T08:53:08.483Z,19.97
2019-03-31T08:54:08.462Z,19.83
2019-03-31T08:55:08.447Z,20.01
2019-03-31T08:56:08.955Z,20.08
2019-03-31T08:57:08.429Z,20.20
2019-03-31T08:58:08.457Z,20.73
2019-03-31T08:59:08.403Z,21.09
2019-03-31T09:00:08.403Z,21.46
2019-03-31T09:01:08.381Z,21.27
2019-03-31T09:02:08.385Z,21.34
2019-03-31T09:03:08.381Z,20.94
2019-03-31T09:04:08.357Z,21.01
2019-03-31T09:05:08.444Z,21.18
2019-03-31T09:06:08.342Z,21.15
2019-03-31T09:07:08.315Z,20.91
2019-03-31T09:08:08.330Z,21.27
2019-03-31T09:09:08.306Z,21.28
2019-03-31T09:10:08.286Z,21.55
2019-03-31T09:11:08.280Z,21.24
2019-03-31T09:12:08.261Z,21.09
2019-03-31T09:13:08.253Z,20.90
2019-03-31T09:14:08.250Z,20.40
2019-03-31T09:15:08.229Z,19.89
2019-03-31T09:16:08.233Z,20.05
2019-03-31T09:17:08.239Z,19.87
2019-03-31T09:18:08.217Z,19.79
2019-03-31T09:19:08.234Z,20.31
2019-03-31T09:20:08.177Z,20.26
2019-03-31T09:21:08.164Z,19.92
2019-03-31T09:22:08.153Z,19.57
2019-03-31T09:23:08.145Z,19.78
2019-03-31T09:24:08.155Z,20.00
2019-03-31T09:25:08.132Z,20.69
2019-03-31T09:26:08.110Z,20.82
2019-03-31T09:27:08.102Z,21.01
2019-03-31T09:28:08.089Z,21.19
2019-03-31T09:29:08.094Z,21.30
2019-03-31T09:30:08.067Z,21.90
2019-03-31T09:31:08.072Z,21.96
2019-03-31T09:32:08.047Z,22.06
2019-03-31T09:33:08.053Z,21.40
2019-03-31T09:34:08.049Z,21.34
2019-03-31T09:35:08.031Z,21.27
2019-03-31T09:36:16.020Z,21.36
2019-03-31T09:37:09.030Z,21.89
2019-03-31T09:38:07.984Z,21.64
2019-03-31T09:39:07.990Z,21.89
2019-03-31T09:40:07.957Z,22.20
2019-03-31T09:41:07.954Z,21.81
2019-03-31T09:42:07.943Z,22.11
2019-03-31T09:43:07.948Z,22.64
2019-03-31T09:44:07.944Z,22.26
2019-03-31T09:45:07.906Z,21.91
2019-03-31T09:46:07.891Z,22.33
2019-03-31T09:47:07.882Z,22.64
2019-03-31T09:48:07.873Z,22.24
2019-03-31T09:49:07.904Z,21.68
2019-03-31T09:50:07.849Z,21.13
2019-03-31T09:51:07.839Z,21.64
2019-03-31T09:52:07.829Z,22.39
2019-03-31T09:53:07.820Z,22.75
2019-03-31T09:54:07.818Z,22.84
2019-03-31T09:55:07.814Z,22.91
2019-03-31T09:56:07.806Z,22.94
2019-03-31T09:57:07.786Z,22.64
2019-03-31T09:58:07.794Z,22.56
2019-03-31T09:59:07.788Z,22.70
2019-03-31T10:00:07.744Z,22.63
2019-03-31T10:01:08.285Z,22.63
2019-03-31T10:02:07.735Z,22.82
2019-03-31T10:03:07.735Z,23.09
2019-03-31T10:04:07.731Z,23.29
2019-03-31T10:05:07.740Z,23.41
2019-03-31T10:06:11.044Z,22.74
2019-03-31T10:07:07.669Z,23.23
2019-03-31T10:08:07.659Z,23.56
2019-03-31T10:09:07.646Z,23.15
2019-03-31T10:10:07.657Z,23.14
2019-03-31T10:11:07.638Z,22.51
2019-03-31T10:12:07.728Z,22.42
2019-03-31T10:13:07.611Z,22.14
2019-03-31T10:14:07.612Z,21.74
2019-03-31T10:15:07.617Z,22.24
2019-03-31T10:16:07.589Z,22.36
2019-03-31T10:17:07.570Z,22.29
2019-03-31T10:18:07.581Z,22.86
2019-03-31T10:19:07.540Z,22.94
2019-03-31T10:20:07.542Z,22.75
2019-03-31T10:21:07.547Z,22.05
2019-03-31T10:22:07.515Z,21.83
2019-03-31T10:23:07.524Z,21.68
2019-03-31T10:24:07.492Z,21.82
2019-03-31T10:25:07.489Z,21.93
2019-03-31T10:26:07.468Z,21.77
2019-03-31T10:27:07.458Z,22.19
2019-03-31T10:28:07.455Z,22.17
2019-03-31T10:29:07.466Z,22.17
2019-03-31T10:30:07.464Z,22.59
2019-03-31T10:31:07.443Z,22.70
2019-03-31T10:32:07.425Z,22.66
2019-03-31T10:33:07.487Z,22.72
2019-03-31T10:34:07.439Z,22.81
2019-03-31T10:35:07.388Z,23.06
2019-03-31T10:36:07.367Z,23.60
2019-03-31T10:37:07.475Z,22.97
2019-03-31T10:38:07.353Z,22.69
2019-03-31T10:39:07.337Z,22.52
2019-03-31T10:40:07.340Z,21.93
2019-03-31T10:41:07.325Z,21.68
2019-03-31T10:42:07.302Z,22.12
2019-03-31T10:43:07.291Z,22.51
2019-03-31T10:44:07.281Z,22.88
2019-03-31T10:45:07.352Z,22.64
2019-03-31T10:46:07.272Z,22.42
2019-03-31T10:47:07.252Z,22.79
2019-03-31T10:48:19.541Z,23.07
2019-03-31T10:49:08.285Z,23.26
2019-03-31T10:50:07.231Z,23.52
2019-03-31T10:51:07.208Z,23.54
2019-03-31T10:52:07.197Z,23.23
2019-03-31T10:53:07.196Z,23.22
2019-03-31T10:54:07.183Z,23.22
2019-03-31T10:55:07.316Z,23.18
2019-03-31T10:56:07.159Z,22.99
2019-03-31T10:57:07.147Z,22.97
2019-03-31T10:58:07.171Z,23.19
2019-03-31T10:59:07.126Z,23.06
2019-03-31T11:00:07.134Z,23.41
2019-03-31T11:01:07.106Z,23.59
2019-03-31T11:02:07.092Z,22.66
2019-03-31T11:03:07.087Z,22.06
2019-03-31T11:04:07.073Z,22.59
2019-03-31T11:05:07.083Z,23.42
2019-03-31T11:06:07.112Z,23.29
2019-03-31T11:07:07.049Z,23.59
2019-03-31T11:08:07.037Z,23.45
2019-03-31T11:09:07.031Z,23.52
2019-03-31T11:10:07.024Z,23.82
2019-03-31T11:11:07.015Z,23.11
2019-03-31T11:12:06.992Z,22.69
2019-03-31T11:13:06.990Z,23.25
2019-03-31T11:14:06.976Z,23.37
2019-03-31T11:15:06.988Z,23.12
2019-03-31T11:16:06.953Z,22.88
2019-03-31T11:17:06.965Z,22.56
2019-03-31T11:18:06.939Z,22.49
2019-03-31T11:19:06.917Z,23.03
2019-03-31T11:20:07.014Z,23.11
2019-03-31T11:21:06.897Z,22.96
2019-03-31T11:22:06.899Z,23.16
2019-03-31T11:23:06.882Z,23.12
2019-03-31T11:24:06.882Z,23.29
2019-03-31T11:25:19.925Z,23.79
2019-03-31T11:26:07.860Z,23.69
2019-03-31T11:27:06.854Z,23.16
2019-03-31T11:28:06.863Z,23.44
2019-03-31T11:29:06.829Z,23.54
2019-03-31T11:30:06.823Z,23.93
2019-03-31T11:31:06.833Z,23.78
2019-03-31T11:32:06.779Z,23.44
2019-03-31T11:33:07.685Z,23.19
2019-03-31T11:34:06.784Z,23.45
2019-03-31T11:35:06.801Z,22.94
2019-03-31T11:36:06.737Z,23.01
2019-03-31T11:37:13.526Z,22.97
2019-03-31T11:38:07.724Z,23.15
2019-03-31T11:39:06.766Z,22.93
2019-03-31T11:40:06.729Z,22.67
2019-03-31T11:41:06.691Z,22.91
2019-03-31T11:42:06.674Z,22.86
2019-03-31T11:43:06.679Z,23.09
2019-03-31T11:44:06.653Z,23.14
2019-03-31T11:45:06.641Z,23.39
2019-03-31T11:46:06.670Z,23.59
2019-03-31T11:47:06.622Z,23.78
2019-03-31T11:48:06.609Z,23.53
2019-03-31T11:49:06.600Z,23.53
2019-03-31T11:50:06.594Z,23.81
2019-03-31T11:51:06.631Z,23.74
2019-03-31T11:52:06.572Z,23.63
2019-03-31T11:53:06.560Z,23.32
2019-03-31T11:54:06.553Z,23.59
2019-03-31T11:55:06.542Z,23.71
2019-03-31T11:56:06.540Z,23.69
2019-03-31T11:57:06.526Z,24.11
2019-03-31T11:58:06.622Z,24.41
2019-03-31T11:59:06.508Z,24.16
2019-03-31T12:00:06.496Z,23.59
2019-03-31T12:01:06.517Z,23.84
2019-03-31T12:02:06.485Z,23.86
2019-03-31T12:03:06.474Z,23.96
2019-03-31T12:04:06.449Z,23.78
2019-03-31T12:05:06.450Z,23.54
2019-03-31T12:06:06.444Z,23.57
2019-03-31T12:07:06.429Z,23.71
2019-03-31T12:08:06.480Z,24.19
2019-03-31T12:09:06.442Z,24.41
2019-03-31T12:10:06.389Z,24.42
2019-03-31T12:11:06.418Z,24.31
2019-03-31T12:12:06.387Z,24.26
2019-03-31T12:13:06.359Z,23.59
2019-03-31T12:14:06.348Z,23.31
2019-03-31T12:15:06.343Z,22.86
2019-03-31T12:16:06.411Z,23.12
2019-03-31T12:17:06.335Z,23.71
2019-03-31T12:18:06.314Z,24.06
2019-03-31T12:19:06.308Z,24.04
2019-03-31T12:20:06.298Z,24.36
2019-03-31T12:21:06.291Z,24.56
2019-03-31T12:22:06.327Z,24.83
2019-03-31T12:23:06.271Z,24.66
2019-03-31T12:24:06.255Z,24.71
2019-03-31T12:25:06.256Z,25.27
2019-03-31T12:26:06.298Z,25.71
2019-03-31T12:27:06.219Z,25.09
2019-03-31T12:28:06.216Z,24.93
2019-03-31T12:29:06.204Z,24.99
2019-03-31T12:30:06.216Z,25.12
2019-03-31T12:31:06.194Z,25.24
2019-03-31T12:32:06.177Z,24.90
2019-03-31T12:33:06.158Z,24.71
2019-03-31T12:34:06.205Z,24.42
2019-03-31T12:35:06.149Z,24.82
2019-03-31T12:36:06.149Z,24.53
2019-03-31T12:37:06.125Z,24.18
2019-03-31T12:38:06.215Z,23.96
2019-03-31T12:39:06.115Z,24.18
2019-03-31T12:40:06.082Z,24.82
2019-03-31T12:41:06.114Z,25.01
2019-03-31T12:42:06.080Z,24.79
2019-03-31T12:43:06.058Z,24.41
2019-03-31T12:44:06.050Z,24.66
2019-03-31T12:45:06.035Z,24.93
2019-03-31T12:46:06.104Z,25.35
2019-03-31T12:47:06.029Z,25.36
2019-03-31T12:48:06.009Z,25.01
2019-03-31T12:49:05.993Z,25.24
2019-03-31T12:50:06.000Z,25.61
2019-03-31T12:51:05.993Z,24.99
2019-03-31T12:52:06.007Z,24.89
2019-03-31T12:53:05.987Z,24.29
2019-03-31T12:54:05.944Z,24.42
2019-03-31T12:55:05.960Z,24.42
2019-03-31T12:56:05.992Z,24.83
2019-03-31T12:57:05.959Z,24.99
2019-03-31T12:58:05.971Z,24.92
2019-03-31T12:59:05.898Z,24.90
2019-03-31T13:00:05.891Z,24.86
2019-03-31T13:01:05.875Z,24.80
2019-03-31T13:02:05.905Z,24.97
2019-03-31T13:03:05.862Z,24.93
2019-03-31T13:04:05.858Z,24.46